Time;durP1;ratioP1;P1;durP2;ratioP2;P2;SDS_P1;SDS_P2;PMS_P1;PMS_P2;Temp;Humidity;BMP_temperature;BMP_pressure;BME280_temperature;BME280_humidity;BME280_pressure;Samples;Min_cycle;Max_cycle;Signal;HPM_P1;HPM_P2
2023/04/19 00:00:29;;;;;;;11.00;9.60;;;;;;;13.95;55.34;97980.78;5090462;28;20697;-69
2023/04/19 00:02:54;;;;;;;15.87;9.53;;;;;;;13.98;55.21;97986.59;5091103;28;22008;-69
2023/04/19 00:05:22;;;;;;;11.30;9.60;;;;;;;13.98;55.36;97977.84;5061045;28;20559;-69
2023/04/19 00:07:48;;;;;;;11.00;9.77;;;;;;;13.96;55.21;97983.28;5089830;28;20212;-69
2023/04/19 00:10:13;;;;;;;10.47;8.70;;;;;;;13.97;55.37;97979.66;5096996;28;20467;-69
2023/04/19 00:12:39;;;;;;;11.40;9.80;;;;;;;13.97;55.53;97984.94;5085570;28;20312;-68
2023/04/19 00:15:05;;;;;;;13.50;9.73;;;;;;;13.98;55.28;97975.22;5060519;28;20181;-69
2023/04/19 00:17:30;;;;;;;12.53;9.37;;;;;;;13.96;55.37;97972.75;5069605;28;20228;-69
2023/04/19 00:19:56;;;;;;;12.07;9.70;;;;;;;13.96;55.59;97975.38;5073708;28;20408;-69
2023/04/19 00:22:22;;;;;;;11.90;9.80;;;;;;;13.97;55.74;97971.75;5088120;28;20181;-68
2023/04/19 00:24:47;;;;;;;12.07;9.83;;;;;;;13.95;55.33;97973.72;5088315;28;20477;-69
2023/04/19 00:27:13;;;;;;;12.00;9.87;;;;;;;13.89;55.38;97971.69;5077756;28;20335;-69
2023/04/19 00:29:38;;;;;;;12.13;10.43;;;;;;;13.89;55.53;97976.97;5082308;28;20189;-69
2023/04/19 00:32:04;;;;;;;12.67;9.43;;;;;;;13.89;55.68;97973.50;5048885;28;20218;-69
2023/04/19 00:34:30;;;;;;;13.27;9.60;;;;;;;13.93;55.80;97966.94;5069453;28;20181;-69
2023/04/19 00:36:56;;;;;;;11.23;10.07;;;;;;;13.92;55.43;97971.38;5085809;28;20502;-70
2023/04/19 00:39:21;;;;;;;13.47;10.73;;;;;;;13.91;55.56;97967.09;5082858;28;20240;-69
2023/04/19 00:41:47;;;;;;;13.30;9.87;;;;;;;13.86;55.40;97972.00;5074949;28;20178;-69
2023/04/19 00:44:12;;;;;;;11.23;9.70;;;;;;;13.88;55.63;97970.03;5091148;28;20181;-70
2023/04/19 00:46:38;;;;;;;13.33;10.33;;;;;;;13.89;55.81;97962.97;5092239;28;20685;-69
2023/04/19 00:49:03;;;;;;;11.93;10.30;;;;;;;13.89;55.71;97970.88;5064410;28;20191;-70
2023/04/19 00:51:30;;;;;;;13.63;10.73;;;;;;;13.83;55.62;97967.06;5086350;28;20292;-70
2023/04/19 00:53:56;;;;;;;12.80;10.97;;;;;;;13.80;55.69;97964.72;5061461;28;20189;-70
2023/04/19 00:56:22;;;;;;;14.80;10.40;;;;;;;13.81;55.94;97963.75;5087440;28;20452;-68
2023/04/19 00:58:48;;;;;;;14.03;10.10;;;;;;;13.78;55.97;97969.31;5084170;28;20499;-69
2023/04/19 01:01:14;;;;;;;12.67;10.30;;;;;;;13.76;56.01;97958.09;5095271;28;20899;-69
2023/04/19 01:03:39;;;;;;;12.67;10.63;;;;;;;13.76;55.96;97958.94;5097033;28;20689;-67
2023/04/19 01:06:05;;;;;;;17.27;10.60;;;;;;;13.76;55.96;97960.72;5069266;28;20204;-70
2023/04/19 01:08:31;;;;;;;13.10;10.60;;;;;;;13.68;56.29;97964.13;5085326;28;20676;-69
2023/04/19 01:10:56;;;;;;;12.30;10.07;;;;;;;13.68;56.33;97958.84;5080175;28;20666;-69
2023/04/19 01:13:21;;;;;;;15.13;11.40;;;;;;;13.67;56.23;97952.78;5092991;28;20265;-69
2023/04/19 01:15:47;;;;;;;12.10;10.30;;;;;;;13.66;56.37;97956.38;5086593;28;20182;-69
2023/04/19 01:18:12;;;;;;;11.93;10.73;;;;;;;13.65;56.48;97946.84;5087518;28;20258;-67
2023/04/19 01:20:38;;;;;;;15.03;10.90;;;;;;;13.69;56.55;97951.81;5091476;28;20184;-69
2023/04/19 01:23:04;;;;;;;13.00;10.40;;;;;;;13.71;56.59;97949.84;5073368;28;20228;-69
2023/04/19 01:25:29;;;;;;;14.13;11.00;;;;;;;13.73;56.31;97945.25;5095883;28;20268;-70
2023/04/19 01:27:55;;;;;;;13.10;10.67;;;;;;;13.67;56.42;97944.88;5089300;28;20650;-69
2023/04/19 01:30:20;;;;;;;15.10;11.13;;;;;;;13.69;56.32;97941.25;5069600;28;20218;-68
2023/04/19 01:32:46;;;;;;;11.60;10.40;;;;;;;13.65;56.45;97938.94;5075259;28;20189;-68
2023/04/19 01:35:11;;;;;;;14.97;11.10;;;;;;;13.65;56.40;97938.94;5098570;28;20717;-69
2023/04/19 01:37:37;;;;;;;12.70;10.70;;;;;;;13.66;56.48;97935.31;5073854;28;20215;-69
2023/04/19 01:40:04;;;;;;;14.00;11.03;;;;;;;13.70;56.54;97929.75;5091427;28;20209;-68
2023/04/19 01:42:29;;;;;;;14.73;10.90;;;;;;;13.70;56.22;97929.75;5082329;28;20189;-69
2023/04/19 01:44:55;;;;;;;14.50;11.10;;;;;;;13.66;56.44;97932.69;5090426;28;20423;-69
2023/04/19 01:47:22;;;;;;;14.10;10.27;;;;;;;13.62;56.54;97930.50;5091153;28;20619;-69
2023/04/19 01:49:47;;;;;;;12.93;10.97;;;;;;;13.64;56.63;97915.38;5090467;28;20537;-69
2023/04/19 01:52:13;;;;;;;15.23;11.47;;;;;;;13.64;56.52;97924.09;5093074;28;20438;-69
2023/04/19 01:54:38;;;;;;;15.43;11.60;;;;;;;13.66;56.28;97923.97;5090874;28;20701;-69
2023/04/19 01:57:04;;;;;;;17.87;12.07;;;;;;;13.69;56.64;97922.81;5096787;28;20287;-69
2023/04/19 01:59:29;;;;;;;14.83;11.90;;;;;;;13.67;56.43;97921.16;5072606;28;20186;-69
2023/04/19 02:01:54;;;;;;;15.03;11.60;;;;;;;13.70;56.53;97919.22;5097619;28;20182;-68
2023/04/19 02:04:20;;;;;;;14.20;11.40;;;;;;;13.64;56.80;97916.19;5100398;28;20184;-69
2023/04/19 02:06:46;;;;;;;16.80;12.43;;;;;;;13.65;56.55;97917.88;5073650;28;20217;-69
2023/04/19 02:09:11;;;;;;;17.20;12.27;;;;;;;13.64;56.54;97910.94;5096486;28;20424;-69
2023/04/19 02:11:37;;;;;;;15.53;12.47;;;;;;;13.62;56.54;97907.63;5088881;28;20206;-68
2023/04/19 02:14:03;;;;;;;19.80;12.80;;;;;;;13.57;56.95;97904.66;5073201;28;20178;-69
2023/04/19 02:16:28;;;;;;;20.03;12.40;;;;;;;13.58;56.93;97910.72;5077364;28;20239;-68
2023/04/19 02:18:53;;;;;;;16.87;13.20;;;;;;;13.57;56.65;97903.81;5066750;28;20182;-68
2023/04/19 02:21:19;;;;;;;17.40;13.13;;;;;;;13.53;57.01;97905.94;5069652;28;20707;-68
2023/04/19 02:23:44;;;;;;;16.03;11.87;;;;;;;13.47;57.31;97903.91;5091623;28;20540;-69
2023/04/19 02:26:10;;;;;;;15.97;12.27;;;;;;;13.42;57.52;97895.66;5036504;28;20298;-69
2023/04/19 02:28:36;;;;;;;16.63;12.60;;;;;;;13.48;57.39;97895.84;5063773;28;20190;-69
2023/04/19 02:31:05;;;;;;;17.50;12.53;;;;;;;13.50;57.40;97895.69;5065717;28;20244;-68
2023/04/19 02:33:31;;;;;;;15.70;12.30;;;;;;;13.55;57.17;97890.81;5071941;28;20438;-68
2023/04/19 02:35:56;;;;;;;16.80;11.97;;;;;;;13.56;57.09;97887.19;5090140;28;20423;-69
2023/04/19 02:38:22;;;;;;;19.17;13.10;;;;;;;13.59;57.03;97889.53;5097931;28;20272;-68
2023/04/19 02:40:47;;;;;;;15.97;12.20;;;;;;;13.53;57.12;97887.50;5076676;28;20198;-69
2023/04/19 02:43:13;;;;;;;16.50;12.77;;;;;;;13.50;57.02;97890.44;5081165;28;20196;-69
2023/04/19 02:45:38;;;;;;;15.50;12.80;;;;;;;13.49;56.81;97886.97;5089671;28;20269;-68
2023/04/19 02:48:04;;;;;;;18.27;12.77;;;;;;;13.46;57.22;97882.00;5065403;28;20209;-69
2023/04/19 02:50:32;;;;;;;18.30;13.83;;;;;;;13.40;57.05;97884.44;5071890;28;20205;-69
2023/04/19 02:52:57;;;;;;;17.57;13.17;;;;;;;13.37;57.28;97875.00;5103948;28;20196;-70
2023/04/19 02:55:23;;;;;;;24.80;13.07;;;;;;;13.32;57.37;97880.75;5053997;28;20424;-69
2023/04/19 02:57:48;;;;;;;16.63;12.20;;;;;;;13.34;57.26;97880.56;5085428;28;20193;-69
2023/04/19 03:00:14;;;;;;;18.20;12.87;;;;;;;13.33;57.35;97873.66;5080152;28;20527;-68
2023/04/19 03:02:42;;;;;;;17.17;13.37;;;;;;;13.35;57.55;97883.06;5071720;28;20186;-69
2023/04/19 03:05:08;;;;;;;17.90;12.97;;;;;;;13.39;57.34;97885.38;5089661;28;20488;-69
2023/04/19 03:07:34;;;;;;;18.10;13.17;;;;;;;13.41;57.46;97872.94;5067970;28;20439;-69
2023/04/19 03:10:00;;;;;;;15.93;13.07;;;;;;;13.41;57.80;97883.47;5089413;28;20977;-70
2023/04/19 03:12:25;;;;;;;16.63;12.87;;;;;;;13.39;57.52;97874.84;5098416;28;20200;-69
2023/04/19 03:14:50;;;;;;;15.97;12.40;;;;;;;13.35;57.45;97877.81;5074363;28;20654;-69
2023/04/19 03:17:16;;;;;;;15.73;13.07;;;;;;;13.34;57.55;97878.78;5080888;28;20209;-69
2023/04/19 03:19:41;;;;;;;18.20;13.57;;;;;;;13.37;57.57;97872.38;5063225;28;20558;-69
2023/04/19 03:22:07;;;;;;;18.30;13.17;;;;;;;13.40;57.59;97872.13;5072779;28;20186;-68
2023/04/19 03:24:32;;;;;;;20.50;13.43;;;;;;;13.41;57.68;97879.03;5069321;28;20217;-69
2023/04/19 03:26:58;;;;;;;17.30;13.13;;;;;;;13.43;57.27;97868.34;5070416;28;20197;-70
2023/04/19 03:29:23;;;;;;;18.23;13.60;;;;;;;13.44;57.56;97870.00;5089133;28;20178;-70
2023/04/19 03:31:49;;;;;;;15.63;13.20;;;;;;;13.45;57.31;97864.56;5063470;28;21682;-69
2023/04/19 03:34:14;;;;;;;17.53;12.70;;;;;;;13.50;57.27;97872.00;5078736;28;20190;-69
2023/04/19 03:36:40;;;;;;;17.93;13.20;;;;;;;13.47;57.10;97864.44;5069427;28;20216;-70
2023/04/19 03:39:06;;;;;;;15.13;11.67;;;;;;;13.48;57.04;97863.44;5090527;28;20256;-70
2023/04/19 03:41:31;;;;;;;15.50;12.17;;;;;;;13.48;57.06;97872.16;5087426;28;20303;-69
2023/04/19 03:43:57;;;;;;;17.00;13.50;;;;;;;13.47;57.24;97861.78;5075639;28;20184;-70
2023/04/19 03:46:23;;;;;;;17.47;12.53;;;;;;;13.48;57.18;97863.44;5065407;28;20327;-70
2023/04/19 03:48:48;;;;;;;19.73;12.87;;;;;;;13.48;56.84;97855.53;5087300;28;20182;-69
2023/04/19 03:51:15;;;;;;;15.87;12.43;;;;;;;13.36;57.41;97858.38;5083443;28;20201;-69
2023/04/19 03:53:40;;;;;;;18.90;13.60;;;;;;;13.39;57.54;97854.63;5087523;28;20186;-69
2023/04/19 03:56:06;;;;;;;23.57;15.50;;;;;;;13.40;57.58;97851.06;5090935;28;20870;-69
2023/04/19 03:58:32;;;;;;;18.17;13.63;;;;;;;13.36;57.36;97853.09;5096641;28;20174;-68
2023/04/19 04:00:58;;;;;;;18.27;12.93;;;;;;;13.40;56.94;97855.47;5090999;28;20695;-68
2023/04/19 04:03:23;;;;;;;17.47;13.47;;;;;;;13.35;56.78;97854.13;5070601;28;20189;-67
2023/04/19 04:05:49;;;;;;;16.63;13.10;;;;;;;13.36;57.28;97850.47;5090706;28;20485;-68
2023/04/19 04:08:14;;;;;;;17.90;12.97;;;;;;;13.38;57.43;97858.25;5096878;28;20753;-68
2023/04/19 04:10:39;;;;;;;32.47;14.80;;;;;;;13.33;57.54;97849.97;5088764;28;20205;-69
2023/04/19 04:13:05;;;;;;;17.57;13.93;;;;;;;13.26;57.51;97855.03;5056856;28;20232;-68
2023/04/19 04:15:30;;;;;;;16.77;13.23;;;;;;;13.28;57.74;97857.53;5069299;28;20211;-69
2023/04/19 04:17:56;;;;;;;17.77;14.30;;;;;;;13.28;57.53;97854.88;5089311;28;20275;-69
2023/04/19 04:20:21;;;;;;;19.47;14.43;;;;;;;13.29;57.19;97852.09;5078085;28;20202;-69
2023/04/19 04:22:47;;;;;;;20.30;14.30;;;;;;;13.31;57.68;97851.91;5068943;28;20192;-68
2023/04/19 04:25:16;;;;;;;18.47;13.90;;;;;;;13.34;57.48;97857.72;5087684;28;20757;-69
2023/04/19 04:27:42;;;;;;;16.97;14.13;;;;;;;13.32;57.50;97858.84;5068805;28;20743;-68
2023/04/19 04:30:09;;;;;;;19.03;14.30;;;;;;;13.28;57.32;97857.53;5069800;28;20491;-69
2023/04/19 04:32:35;;;;;;;19.37;14.53;;;;;;;13.29;57.34;97859.16;5073996;28;20546;-69
2023/04/19 04:35:02;;;;;;;23.93;14.50;;;;;;;13.25;57.83;97858.63;5095717;28;20499;-69
2023/04/19 04:37:27;;;;;;;16.90;13.37;;;;;;;13.18;57.82;97865.50;5098255;28;20753;-69
2023/04/19 04:39:52;;;;;;;20.40;13.63;;;;;;;13.24;57.72;97866.69;5066184;28;20515;-69
2023/04/19 04:42:20;;;;;;;16.47;13.17;;;;;;;13.20;57.70;97864.34;5097411;28;20259;-69
2023/04/19 04:44:46;;;;;;;18.40;14.67;;;;;;;13.20;57.84;97853.00;5092209;28;20268;-68
2023/04/19 04:47:12;;;;;;;17.53;14.37;;;;;;;13.16;57.65;97854.28;5098104;28;21031;-69
2023/04/19 04:49:37;;;;;;;19.10;14.40;;;;;;;13.04;57.65;97857.16;5075155;28;20191;-68
2023/04/19 04:52:03;;;;;;;18.93;14.40;;;;;;;13.08;57.81;97872.66;5087111;28;20464;-69
2023/04/19 04:54:28;;;;;;;22.20;14.53;;;;;;;13.09;57.93;97869.06;5069184;28;20202;-68
2023/04/19 04:56:54;;;;;;;18.50;15.30;;;;;;;13.11;57.91;97867.06;5087035;28;20213;-68
2023/04/19 04:59:19;;;;;;;20.57;14.33;;;;;;;13.06;57.91;97865.75;5076645;28;20174;-69
2023/04/19 05:01:45;;;;;;;21.10;15.13;;;;;;;13.09;58.23;97866.41;5068519;28;20184;-69
2023/04/19 05:04:10;;;;;;;19.60;14.60;;;;;;;13.08;57.63;97877.91;5087307;28;20638;-69
2023/04/19 05:06:39;;;;;;;20.17;14.80;;;;;;;13.02;57.59;97869.63;5084560;28;20261;-68
2023/04/19 05:09:05;;;;;;;17.30;13.70;;;;;;;13.02;57.57;97872.28;5073125;28;20181;-68
2023/04/19 05:11:30;;;;;;;18.90;13.90;;;;;;;13.00;57.52;97876.84;5093817;28;20460;-69
2023/04/19 05:13:56;;;;;;;19.33;14.60;;;;;;;13.00;57.71;97876.84;5083582;28;20838;-68
2023/04/19 05:16:22;;;;;;;18.80;14.37;;;;;;;13.06;57.88;97873.63;5070500;28;20369;-69
2023/04/19 05:18:47;;;;;;;21.10;14.47;;;;;;;13.06;57.60;97881.53;5075394;28;20225;-68
2023/04/19 05:21:13;;;;;;;18.03;14.20;;;;;;;13.01;57.50;97873.25;5069179;28;20424;-68
2023/04/19 05:23:38;;;;;;;19.00;14.50;;;;;;;13.00;57.38;97876.03;5091180;28;20180;-68
2023/04/19 05:26:04;;;;;;;20.67;15.70;;;;;;;12.96;57.65;97883.41;5085723;28;20639;-69
2023/04/19 05:28:29;;;;;;;20.53;15.60;;;;;;;12.95;57.35;97884.38;5086102;28;20601;-69
2023/04/19 05:30:55;;;;;;;21.33;16.23;;;;;;;12.92;57.47;97889.94;5065633;28;20210;-69
2023/04/19 05:33:20;;;;;;;20.73;15.10;;;;;;;12.87;57.67;97886.94;5054463;28;20318;-69
2023/04/19 05:35:46;;;;;;;24.80;16.13;;;;;;;12.80;57.26;97888.53;5059782;28;20182;-69
2023/04/19 05:38:11;;;;;;;22.40;15.73;;;;;;;12.78;57.67;97898.34;5083699;28;20663;-69
2023/04/19 05:40:38;;;;;;;20.03;15.30;;;;;;;12.80;57.74;97885.88;5083462;28;20277;-69
2023/04/19 05:43:04;;;;;;;20.37;15.13;;;;;;;12.84;58.00;97892.50;5064628;28;20182;-70
2023/04/19 05:45:29;;;;;;;19.23;15.07;;;;;;;12.84;57.88;97890.69;5080953;28;20946;-70
2023/04/19 05:47:55;;;;;;;19.27;15.70;;;;;;;12.84;57.64;97882.81;5078320;28;20281;-69
2023/04/19 05:50:20;;;;;;;20.63;14.40;;;;;;;12.89;57.42;97884.97;5043885;28;20195;-69
2023/04/19 05:52:46;;;;;;;18.60;14.30;;;;;;;12.89;57.56;97887.59;5069460;28;20599;-68
2023/04/19 05:55:12;;;;;;;19.77;14.67;;;;;;;12.87;57.33;97900.09;5060556;28;20196;-71
2023/04/19 05:57:37;;;;;;;19.63;14.57;;;;;;;12.84;57.77;97893.31;5082539;28;20202;-70
2023/04/19 06:00:04;;;;;;;19.90;15.03;;;;;;;12.87;57.26;97897.44;5067578;28;20281;-70
2023/04/19 06:02:29;;;;;;;20.27;15.40;;;;;;;12.89;57.15;97895.50;5083340;28;20584;-69
2023/04/19 06:04:56;;;;;;;22.77;15.23;;;;;;;12.90;57.24;97908.53;5057350;28;20421;-69
2023/04/19 06:07:22;;;;;;;18.10;14.57;;;;;;;12.83;57.06;97890.84;5080521;28;20213;-69
2023/04/19 06:09:48;;;;;;;19.83;15.03;;;;;;;12.78;57.05;97882.56;5077183;28;20420;-66
2023/04/19 06:12:13;;;;;;;20.07;15.87;;;;;;;12.77;57.24;97894.06;5063790;28;20757;-70
2023/04/19 06:14:39;;;;;;;20.77;15.67;;;;;;;12.69;57.54;97894.81;5082631;28;20190;-70
2023/04/19 06:17:04;;;;;;;21.57;15.20;;;;;;;12.71;57.43;97896.34;5080733;28;20205;-69
2023/04/19 06:19:32;;;;;;;22.60;16.57;;;;;;;12.78;57.66;97903.63;5065227;28;20209;-69
2023/04/19 06:21:59;;;;;;;21.23;15.43;;;;;;;12.80;57.32;97896.41;5066477;28;20554;-69
2023/04/19 06:24:24;;;;;;;20.47;15.40;;;;;;;12.85;57.38;97894.16;5089865;28;20423;-68
2023/04/19 06:26:50;;;;;;;19.37;15.00;;;;;;;12.87;57.36;97893.03;5061741;28;20448;-71
2023/04/19 06:29:15;;;;;;;22.33;16.03;;;;;;;12.90;56.66;97889.25;5066089;28;20186;-69
2023/04/19 06:31:41;;;;;;;20.70;15.17;;;;;;;12.93;57.29;97890.75;5068672;28;20221;-71
2023/04/19 06:34:07;;;;;;;20.70;16.03;;;;;;;12.95;56.89;97889.66;5083702;28;20647;-71
2023/04/19 06:36:32;;;;;;;25.07;15.30;;;;;;;12.95;56.82;97888.81;5084403;28;20507;-70
2023/04/19 06:38:58;;;;;;;23.03;16.07;;;;;;;13.00;57.09;97886.56;5062469;28;20599;-71
2023/04/19 06:41:23;;;;;;;20.70;14.83;;;;;;;13.06;56.67;97886.78;5084541;28;20178;-70
2023/04/19 06:43:49;;;;;;;20.13;15.60;;;;;;;13.12;56.86;97895.88;5093091;28;20294;-70
2023/04/19 06:46:14;;;;;;;18.93;15.37;;;;;;;13.14;56.51;97890.47;5095152;28;20170;-70
2023/04/19 06:48:40;;;;;;;22.37;16.10;;;;;;;13.21;56.44;97894.16;5073022;28;20178;-70
2023/04/19 06:51:06;;;;;;;23.13;15.03;;;;;;;13.24;56.77;97899.09;5062250;28;20229;-71
2023/04/19 06:53:31;;;;;;;20.47;14.40;;;;;;;13.26;56.32;97891.88;5089432;28;20448;-69
2023/04/19 06:56:01;;;;;;;20.27;16.53;;;;;;;13.30;56.52;97889.75;5070198;28;20683;-71
2023/04/19 06:58:27;;;;;;;19.93;14.80;;;;;;;13.29;56.01;97890.75;5062965;28;20216;-71
2023/04/19 07:00:53;;;;;;;19.93;15.63;;;;;;;13.27;56.02;97888.25;5095478;28;20415;-69
2023/04/19 07:03:18;;;;;;;18.53;14.43;;;;;;;13.29;55.37;97885.50;5070124;28;20536;-72
2023/04/19 07:05:44;;;;;;;21.70;14.53;;;;;;;13.27;55.80;97893.53;5082080;28;21542;-69
2023/04/19 07:08:09;;;;;;;18.03;13.20;;;;;;;13.27;55.86;97884.81;5071801;28;20201;-68
2023/04/19 07:10:34;;;;;;;17.80;13.67;;;;;;;13.27;55.90;97893.53;5080384;28;20210;-71
2023/04/19 07:13:00;;;;;;;18.80;13.97;;;;;;;13.30;55.73;97892.38;5087582;28;20272;-70
2023/04/19 07:15:25;;;;;;;19.17;13.93;;;;;;;13.29;55.85;97888.94;5083459;28;20389;-69
2023/04/19 07:17:51;;;;;;;15.73;13.27;;;;;;;13.34;55.78;97886.69;5054750;28;20202;-68
2023/04/19 07:20:16;;;;;;;15.60;13.87;;;;;;;13.37;55.65;97885.53;5060389;28;20178;-70
2023/04/19 07:22:42;;;;;;;14.93;12.60;;;;;;;13.40;55.30;97882.66;5077430;28;20508;-69
2023/04/19 07:25:08;;;;;;;16.80;13.53;;;;;;;13.48;54.90;97874.78;5084557;28;21052;-70
2023/04/19 07:27:33;;;;;;;18.80;13.77;;;;;;;13.52;55.06;97875.31;5079004;28;20256;-70
2023/04/19 07:29:59;;;;;;;18.30;14.33;;;;;;;13.56;54.72;97871.38;5092261;28;20319;-69
2023/04/19 07:32:24;;;;;;;20.90;13.97;;;;;;;13.57;54.86;97873.03;5068677;28;20210;-69
2023/04/19 07:34:50;;;;;;;18.37;14.00;;;;;;;13.61;54.80;97871.72;5041822;28;20182;-68
2023/04/19 07:37:16;;;;;;;18.33;13.70;;;;;;;13.67;54.64;97871.13;5079247;28;20205;-69
2023/04/19 07:39:41;;;;;;;19.70;13.30;;;;;;;13.70;54.54;97874.44;5078297;28;20460;-69
2023/04/19 07:42:07;;;;;;;20.30;13.67;;;;;;;13.72;54.59;97870.66;5067580;28;20691;-69
2023/04/19 07:44:32;;;;;;;17.20;12.70;;;;;;;13.76;54.21;97871.16;5071866;28;20242;-69
2023/04/19 07:46:58;;;;;;;17.50;13.37;;;;;;;13.75;54.23;97872.13;5093801;28;20202;-69
2023/04/19 07:49:23;;;;;;;17.57;13.27;;;;;;;13.81;54.00;97867.06;5060063;28;20187;-69
2023/04/19 07:51:48;;;;;;;25.17;14.40;;;;;;;13.88;53.88;97861.19;5095806;28;20212;-69
2023/04/19 07:54:19;;;;;;;17.57;13.40;;;;;;;13.94;53.87;97861.38;5068002;28;20639;-69
2023/04/19 07:56:45;;;;;;;17.70;13.97;;;;;;;14.06;54.10;97866.38;5068456;28;20201;-69
2023/04/19 07:59:10;;;;;;;17.60;13.13;;;;;;;14.17;53.35;97852.91;5083417;28;20430;-69
2023/04/19 08:01:35;;;;;;;17.57;12.23;;;;;;;14.32;52.81;97861.03;5080282;28;20502;-70
2023/04/19 08:04:01;;;;;;;15.80;12.30;;;;;;;14.47;52.81;97857.78;5093612;28;20186;-69
2023/04/19 08:06:28;;;;;;;15.30;12.70;;;;;;;14.61;52.65;97856.34;5064801;28;20242;-69
2023/04/19 08:08:53;;;;;;;15.37;13.27;;;;;;;14.72;51.96;97854.22;5071204;28;20848;-69
2023/04/19 08:11:19;;;;;;;18.67;12.90;;;;;;;14.80;51.57;97845.50;5088629;28;20467;-69
2023/04/19 08:13:44;;;;;;;16.10;12.37;;;;;;;14.88;51.22;97848.13;5092219;28;20264;-69
2023/04/19 08:16:10;;;;;;;15.47;11.90;;;;;;;14.90;51.16;97845.34;5077696;28;20269;-69
2023/04/19 08:18:35;;;;;;;15.63;12.53;;;;;;;14.94;51.35;97845.84;5069697;28;20548;-70
2023/04/19 08:21:01;;;;;;;16.30;11.10;;;;;;;15.11;50.34;97844.84;5037421;28;20187;-69
2023/04/19 08:23:27;;;;;;;14.27;12.00;;;;;;;15.29;50.28;97846.47;5064531;28;20184;-69
2023/04/19 08:25:52;;;;;;;13.23;10.70;;;;;;;15.36;49.93;97831.63;5069193;28;20182;-68
2023/04/19 08:28:18;;;;;;;14.97;12.57;;;;;;;15.48;49.42;97835.56;5055862;28;20970;-69
2023/04/19 08:30:43;;;;;;;12.70;11.00;;;;;;;15.56;48.96;97837.38;5092592;28;20352;-69
2023/04/19 08:33:09;;;;;;;14.87;11.17;;;;;;;15.61;48.79;97839.50;5084397;28;20186;-70
2023/04/19 08:35:36;;;;;;;13.73;10.33;;;;;;;15.87;48.91;97838.47;5088991;28;20185;-70
2023/04/19 08:38:03;;;;;;;13.33;11.17;;;;;;;16.04;48.74;97839.22;5089969;28;20259;-69
2023/04/19 08:40:32;;;;;;;11.87;10.57;;;;;;;16.06;48.21;97842.53;5084405;28;20507;-69
2023/04/19 08:42:57;;;;;;;17.20;10.80;;;;;;;16.17;47.95;97836.84;5090734;28;20428;-69
2023/04/19 08:45:25;;;;;;;12.77;10.53;;;;;;;16.50;46.99;97833.22;5080969;28;20784;-70
2023/04/19 08:47:51;;;;;;;13.13;10.30;;;;;;;16.69;45.77;97827.44;5084489;28;20212;-69
2023/04/19 08:50:20;;;;;;;14.20;10.10;;;;;;;16.71;44.99;97825.47;5074472;28;20841;-70
2023/04/19 08:52:45;;;;;;;13.53;9.43;;;;;;;16.70;44.76;97817.69;5101194;28;20776;-70
2023/04/19 08:55:11;;;;;;;14.03;11.37;;;;;;;16.65;44.87;97823.50;5092686;28;20465;-69
2023/04/19 08:57:37;;;;;;;12.43;9.77;;;;;;;16.13;44.53;97823.13;5091032;28;20231;-70
2023/04/19 09:00:09;;;;;;;10.93;8.17;;;;;;;16.01;44.95;97821.88;5098522;28;20439;-70
2023/04/19 09:02:50;;;;;;;10.97;9.07;;;;;;;15.99;45.05;97828.34;5080878;28;20636;-70
2023/04/19 09:05:17;;;;;;;12.83;9.10;;;;;;;16.12;45.08;97818.88;5070429;28;20764;-69
2023/04/19 09:07:43;;;;;;;12.40;9.00;;;;;;;16.02;44.91;97825.34;5072117;28;20458;-69
2023/04/19 09:10:11;;;;;;;11.13;8.83;;;;;;;16.04;44.84;97824.19;5095994;28;20947;-70
2023/04/19 09:12:37;;;;;;;10.53;9.00;;;;;;;16.00;44.79;97820.25;5070214;28;20455;-69
2023/04/19 09:15:03;;;;;;;10.17;8.70;;;;;;;16.08;45.14;97811.44;5073608;28;20428;-69
2023/04/19 09:17:30;;;;;;;15.40;8.80;;;;;;;16.04;44.88;97805.66;5094488;28;20439;-70
2023/04/19 09:19:56;;;;;;;12.60;9.90;;;;;;;16.10;45.53;97806.81;5083743;28;20422;-69
2023/04/19 09:22:21;;;;;;;10.13;9.13;;;;;;;16.19;45.37;97808.41;5081346;28;20418;-69
2023/04/19 09:24:47;;;;;;;12.80;9.00;;;;;;;16.19;44.83;97804.94;5074032;28;20476;-69
2023/04/19 09:27:15;;;;;;;11.90;8.73;;;;;;;16.38;44.80;97804.50;5052075;28;20213;-69
2023/04/19 09:29:41;;;;;;;12.33;9.53;;;;;;;16.80;45.13;97806.84;5073593;28;20668;-70
2023/04/19 09:32:06;;;;;;;14.17;9.80;;;;;;;17.07;43.66;97788.81;5054445;28;20459;-70
2023/04/19 09:34:32;;;;;;;10.90;9.40;;;;;;;17.54;43.10;97800.09;5105628;28;20275;-69
2023/04/19 09:36:57;;;;;;;10.93;9.17;;;;;;;17.72;41.53;97799.72;5075396;28;20189;-68
2023/04/19 09:39:32;;;;;;;12.77;9.03;;;;;;;17.87;41.39;97802.34;5076133;28;20185;-70
2023/04/19 09:41:58;;;;;;;12.40;9.60;;;;;;;17.57;41.23;97786.50;5088704;28;20669;-69
2023/04/19 09:44:23;;;;;;;11.93;9.43;;;;;;;17.73;41.56;97790.78;5073158;28;20429;-69
2023/04/19 09:46:51;;;;;;;12.83;10.10;;;;;;;18.15;41.15;97778.66;5077548;28;20190;-69
2023/04/19 09:49:23;;;;;;;12.37;9.60;;;;;;;18.65;41.49;97772.66;5072815;28;20181;-70
2023/04/19 09:51:49;;;;;;;15.73;10.60;;;;;;;18.73;41.07;97769.84;5099799;28;20459;-68
2023/04/19 09:54:16;;;;;;;18.70;13.50;;;;;;;18.61;40.70;97774.03;5073173;28;21140;-69
2023/04/19 09:56:42;;;;;;;13.37;10.73;;;;;;;18.49;40.12;97771.88;5066371;28;20197;-70
2023/04/19 09:59:09;;;;;;;22.53;18.13;;;;;;;18.46;40.87;97764.28;5077070;28;20419;-70
2023/04/19 10:01:37;;;;;;;16.43;11.00;;;;;;;18.69;40.49;97766.75;5101691;28;20726;-69
2023/04/19 10:04:05;;;;;;;20.83;15.97;;;;;;;18.71;40.92;97770.03;5095835;28;20415;-69
2023/04/19 10:06:31;;;;;;;23.63;11.73;;;;;;;18.46;40.23;97769.59;5067692;28;20456;-70
2023/04/19 10:09:05;;;;;;;14.10;10.83;;;;;;;18.46;40.33;97763.47;5094040;28;20428;-69
2023/04/19 10:11:38;;;;;;;12.97;10.87;;;;;;;18.23;40.40;97767.94;5097660;28;20714;-70
2023/04/19 10:14:10;;;;;;;13.67;11.13;;;;;;;18.25;40.62;97765.94;5100113;28;20453;-68
2023/04/19 10:16:36;;;;;;;11.73;9.87;;;;;;;18.15;40.52;97765.38;5085920;28;20995;-70
2023/04/19 10:19:05;;;;;;;10.40;9.20;;;;;;;17.94;40.85;97769.63;5085338;28;20416;-69
2023/04/19 10:21:31;;;;;;;11.10;9.90;;;;;;;17.83;40.81;97763.97;5055103;28;20411;-69
2023/04/19 10:23:57;;;;;;;14.63;11.60;;;;;;;17.87;41.02;97755.47;5101035;28;20422;-69
2023/04/19 10:26:23;;;;;;;18.43;13.70;;;;;;;17.96;40.89;97759.66;5092846;28;21062;-69
2023/04/19 10:28:49;;;;;;;11.63;10.40;;;;;;;18.11;40.40;97756.19;5091387;28;20794;-69
2023/04/19 10:31:15;;;;;;;10.27;9.00;;;;;;;18.25;40.19;97741.22;5078993;28;20201;-69
2023/04/19 10:33:41;;;;;;;9.40;8.37;;;;;;;18.32;40.51;97751.91;5066167;28;20181;-71
2023/04/19 10:36:13;;;;;;;13.33;8.90;;;;;;;18.36;40.23;97753.97;5072146;28;20416;-70
2023/04/19 10:38:46;;;;;;;11.40;9.40;;;;;;;18.47;40.40;97750.00;5074727;28;20252;-70
2023/04/19 10:41:15;;;;;;;12.00;10.00;;;;;;;18.64;39.92;97745.25;5088475;28;20404;-70
2023/04/19 10:43:59;;;;;;;12.53;10.47;;;;;;;18.82;40.47;97742.16;5058807;28;20428;-70
2023/04/19 10:46:24;;;;;;;9.60;8.60;;;;;;;18.63;40.18;97738.31;5089413;28;20829;-70
2023/04/19 10:48:59;;;;;;;12.57;9.77;;;;;;;18.35;40.41;97738.25;5052165;28;20421;-69
2023/04/19 10:51:26;;;;;;;10.93;9.40;;;;;;;18.24;40.72;97734.25;5073100;28;20601;-70
2023/04/19 10:53:54;;;;;;;15.67;9.53;;;;;;;18.14;41.10;97736.41;5090639;28;20434;-69
2023/04/19 10:56:21;;;;;;;12.43;10.40;;;;;;;18.10;41.28;97720.06;5066417;28;20426;-70
2023/04/19 10:59:06;;;;;;;11.30;8.90;;;;;;;17.99;41.49;97720.56;5092881;28;20436;-70
2023/04/19 11:01:45;;;;;;;10.53;8.77;;;;;;;17.78;41.21;97724.75;5088121;28;20922;-70
2023/04/19 11:04:14;;;;;;;10.63;9.03;;;;;;;17.63;41.92;97717.66;5075867;28;20428;-69
2023/04/19 11:06:52;;;;;;;16.83;8.97;;;;;;;17.35;42.83;97712.19;5073055;28;21034;-70
2023/04/19 11:09:24;;;;;;;12.87;9.30;;;;;;;17.09;43.05;97710.81;5072679;28;20415;-69
2023/04/19 11:11:52;;;;;;;12.90;9.10;;;;;;;17.01;43.83;97710.91;5055621;28;20496;-69
2023/04/19 11:14:19;;;;;;;13.50;9.10;;;;;;;16.93;44.23;97709.13;5100391;28;20767;-69